This is the latest recevied weather packets stored in our database for station/object KI4LFI. If no packets are shown the sender has not sent any weather packets the latest 10 day(s).
| Time | Temp. | Humidity | Pressure | Rain* | Wind** | Luminosity | Snow |
|---|---|---|---|---|---|---|---|
| 1777448739 | 20° C | 98% | 1015 hPa | 0 mm | - | - | - |
| 1777446045 | 19.44° C | 96% | 1015.1 hPa | 0 mm | - | - | - |
| 1777443344 | 18.89° C | 96% | 1015.6 hPa | 0 mm | - | - | - |
| 1777440658 | 19.44° C | 94% | 1016.1 hPa | 0 mm | - | - | - |
| 1777439753 | 20° C | 93% | 1016.2 hPa | 0 mm | - | - | - |
| 1777438838 | 20.56° C | 93% | 1016.6 hPa | 0 mm | - | - | - |
| 1777436143 | 21.11° C | 93% | 1017.3 hPa | 0 mm | - | - | - |
| 1777433442 | 21.67° C | 91% | 1018.6 hPa | 0 mm | - | - | - |
| 1777431638 | 22.22° C | 89% | 1017.6 hPa | 0 mm | - | - | - |
| 1777429844 | 22.22° C | 87% | 1017.4 hPa | 0 mm | - | - | - |
| 1777428042 | 22.78° C | 85% | 1017.1 hPa | 0 mm | - | - | - |
| 1777427149 | 23.33° C | 84% | 1016.9 hPa | 0 mm | - | - | - |
| 1777426244 | 23.33° C | 84% | 1016.8 hPa | 0 mm | - | - | - |
| 1777419043 | 24.44° C | 77% | 1017.4 hPa | 0 mm | - | - | - |
| 1777415444 | 25.56° C | 76% | 1017.6 hPa | 0 mm | - | - | - |
| 1777412738 | 26.11° C | 77% | 1017.5 hPa | 0 mm | - | - | - |
| 1777409147 | 26.67° C | 75% | 1018.1 hPa | 0 mm | - | - | - |
| 1777407338 | 26.67° C | 75% | 1018.2 hPa | 0 mm | - | - | - |
| 1777404646 | 26.11° C | 75% | 1019.2 hPa | 0 mm | - | - | - |
| 1777401945 | 27.78° C | 73% | 1019.6 hPa | 0 mm | - | - | - |
| 1777400142 | 26.67° C | 76% | 1020 hPa | 0 mm | - | - | - |
| 1777395643 | 27.78° C | 72% | 1020.3 hPa | 0 mm | - | - | - |
| 1777387535 | 23.89° C | 83% | 1020.3 hPa | 0 mm | - | - | - |
* Rain latest hour (hover to see other rain measurements)
** Current wind speed in m/s (hover to see current wind gust speed)